DLH6AW EDDB-LEAL
Flight info
| Callsign | DLH6AW |
|---|---|
| Flight time | 2h 59m |
| Altitude | 32000 |
| Route | KISUC1Z KISUC Z117 ORTAG DCT BAMKI DCT IBAGA DCT DKB N869 NATOR DCT LUTIX DCT BENOT DCT NEMOS DCT GEVEA DCT INCUS DCT BALSI DCT RETNO DCT TUPOX DCT MTG DCT DIVKO DCT VATIR N852 PIVUS Z237 OKITI M603 GERVU |
| Aircraft | A321/M-SDE3FGHIRWY/LB1 |
Departure
| Time | 2026-05-07 13:42 |
|---|---|
| Airport | Berlin Brandenburg Airport (EDDB) |
Arrival
| Time | 2026-05-07 16:42 |
|---|---|
| Airport | Alicante-Elche Miguel Hernández Airport (LEAL) |
| Time | Latitude | Longitude | Altitude | Speed | Heading |
|---|---|---|---|---|---|
| 2026-05-07 12:49 | 52.36284 | 13.50654 | 155 ft | 0 kts | 69° |
| 2026-05-07 13:24 | 52.36279 | 13.50631 | 154 ft | 3 kts | 69° |
| 2026-05-07 13:25 | 52.36272 | 13.50602 | 153 ft | 3 kts | 69° |
| 2026-05-07 13:25 | 52.36265 | 13.50574 | 154 ft | 3 kts | 69° |
| 2026-05-07 13:25 | 52.36262 | 13.50543 | 153 ft | 3 kts | 121° |
| 2026-05-07 13:25 | 52.36270 | 13.50527 | 153 ft | 0 kts | 154° |
| 2026-05-07 13:26 | 52.36268 | 13.50528 | 153 ft | 1 kts | 154° |
| 2026-05-07 13:26 | 52.36261 | 13.50534 | 153 ft | 2 kts | 154° |
| 2026-05-07 13:26 | 52.36247 | 13.50544 | 153 ft | 3 kts | 154° |
| 2026-05-07 13:27 | 52.36230 | 13.50556 | 153 ft | 3 kts | 162° |
| 2026-05-07 13:27 | 52.36205 | 13.50565 | 153 ft | 5 kts | 168° |
| 2026-05-07 13:27 | 52.36168 | 13.50578 | 153 ft | 6 kts | 166° |
| 2026-05-07 13:27 | 52.36123 | 13.50603 | 152 ft | 7 kts | 159° |
| 2026-05-07 13:28 | 52.36071 | 13.50636 | 152 ft | 9 kts | 158° |
| 2026-05-07 13:28 | 52.36000 | 13.50682 | 152 ft | 12 kts | 159° |
| 2026-05-07 13:28 | 52.35947 | 13.50714 | 152 ft | 6 kts | 159° |
| 2026-05-07 13:28 | 52.35905 | 13.50741 | 152 ft | 7 kts | 159° |
| 2026-05-07 13:29 | 52.35865 | 13.50766 | 152 ft | 7 kts | 162° |
| 2026-05-07 13:29 | 52.35799 | 13.50726 | 149 ft | 15 kts | 240° |
| 2026-05-07 13:29 | 52.35759 | 13.50563 | 148 ft | 15 kts | 249° |
| 2026-05-07 13:29 | 52.35719 | 13.50397 | 148 ft | 16 kts | 248° |
| 2026-05-07 13:30 | 52.35679 | 13.50228 | 148 ft | 15 kts | 249° |
| 2026-05-07 13:30 | 52.35651 | 13.50111 | 148 ft | 11 kts | 249° |
| 2026-05-07 13:30 | 52.35621 | 13.49988 | 148 ft | 12 kts | 249° |
| 2026-05-07 13:30 | 52.35593 | 13.49867 | 148 ft | 11 kts | 249° |
| 2026-05-07 13:31 | 52.35566 | 13.49750 | 148 ft | 11 kts | 249° |
| 2026-05-07 13:31 | 52.35550 | 13.49685 | 148 ft | 0 kts | 249° |
| 2026-05-07 13:31 | 52.35550 | 13.49683 | 148 ft | 0 kts | 249° |
| 2026-05-07 13:31 | 52.35549 | 13.49680 | 148 ft | 0 kts | 249° |
| 2026-05-07 13:37 | 52.35548 | 13.49677 | 148 ft | 2 kts | 249° |
| 2026-05-07 13:37 | 52.35522 | 13.49567 | 148 ft | 16 kts | 249° |
| 2026-05-07 13:38 | 52.35482 | 13.49398 | 148 ft | 16 kts | 249° |
| 2026-05-07 13:38 | 52.35441 | 13.49223 | 148 ft | 13 kts | 249° |
| 2026-05-07 13:38 | 52.35407 | 13.49083 | 148 ft | 14 kts | 249° |
| 2026-05-07 13:38 | 52.35371 | 13.48931 | 148 ft | 15 kts | 249° |
| 2026-05-07 13:39 | 52.35333 | 13.48769 | 148 ft | 16 kts | 249° |
| 2026-05-07 13:39 | 52.35292 | 13.48598 | 148 ft | 17 kts | 250° |
| 2026-05-07 13:39 | 52.35246 | 13.48482 | 148 ft | 10 kts | 207° |
| 2026-05-07 13:39 | 52.35184 | 13.48501 | 148 ft | 9 kts | 159° |
| 2026-05-07 13:40 | 52.35155 | 13.48519 | 150 ft | 2 kts | 159° |
| 2026-05-07 13:40 | 52.35148 | 13.48524 | 150 ft | 0 kts | 159° |
| 2026-05-07 13:40 | 52.35146 | 13.48525 | 150 ft | 1 kts | 159° |
| 2026-05-07 13:40 | 52.35130 | 13.48536 | 151 ft | 4 kts | 153° |
| 2026-05-07 13:41 | 52.35103 | 13.48603 | 153 ft | 12 kts | 105° |
| 2026-05-07 13:41 | 52.35085 | 13.48791 | 156 ft | 20 kts | 99° |
| 2026-05-07 13:41 | 52.35081 | 13.49059 | 157 ft | 30 kts | 82° |
| 2026-05-07 13:41 | 52.35187 | 13.49556 | 158 ft | 73 kts | 69° |
| 2026-05-07 13:42 | 52.35450 | 13.50660 | 159 ft | 132 kts | 69° |
| 2026-05-07 13:42 | 52.35841 | 13.52311 | 207 ft | 174 kts | 69° |
| 2026-05-07 13:42 | 52.36263 | 13.54082 | 964 ft | 164 kts | 68° |
| 2026-05-07 13:42 | 52.36694 | 13.55782 | 1592 ft | 164 kts | 65° |
| 2026-05-07 13:43 | 52.37164 | 13.57551 | 1941 ft | 178 kts | 66° |
| 2026-05-07 13:43 | 52.37372 | 13.59669 | 2109 ft | 201 kts | 88° |
| 2026-05-07 13:43 | 52.37297 | 13.62026 | 2459 ft | 210 kts | 91° |
| 2026-05-07 13:43 | 52.37210 | 13.64469 | 2895 ft | 218 kts | 89° |
| 2026-05-07 13:44 | 52.37175 | 13.66958 | 3545 ft | 220 kts | 88° |
| 2026-05-07 13:44 | 52.37197 | 13.69499 | 3928 ft | 225 kts | 86° |
| 2026-05-07 13:44 | 52.37000 | 13.72042 | 3997 ft | 228 kts | 109° |
| 2026-05-07 13:44 | 52.36153 | 13.74240 | 4005 ft | 232 kts | 134° |
| 2026-05-07 13:45 | 52.34783 | 13.75659 | 4062 ft | 238 kts | 162° |
| 2026-05-07 13:45 | 52.33157 | 13.76011 | 4710 ft | 241 kts | 179° |
| 2026-05-07 13:45 | 52.31477 | 13.75694 | 5342 ft | 249 kts | 194° |
| 2026-05-07 13:45 | 52.29747 | 13.74802 | 5649 ft | 270 kts | 197° |
| 2026-05-07 13:46 | 52.27941 | 13.73807 | 6210 ft | 277 kts | 199° |
| 2026-05-07 13:46 | 52.26227 | 13.72301 | 6805 ft | 282 kts | 217° |
| 2026-05-07 13:46 | 52.24841 | 13.70036 | 7402 ft | 285 kts | 234° |
| 2026-05-07 13:46 | 52.23898 | 13.67186 | 7981 ft | 288 kts | 250° |
| 2026-05-07 13:47 | 52.23205 | 13.64104 | 8596 ft | 290 kts | 250° |
| 2026-05-07 13:47 | 52.22510 | 13.61041 | 9188 ft | 293 kts | 249° |
| 2026-05-07 13:47 | 52.21790 | 13.57917 | 9856 ft | 294 kts | 248° |
| 2026-05-07 13:47 | 52.21058 | 13.54779 | 10322 ft | 302 kts | 248° |
| 2026-05-07 13:48 | 52.20287 | 13.51482 | 10435 ft | 320 kts | 248° |
| 2026-05-07 13:48 | 52.19485 | 13.47982 | 10570 ft | 337 kts | 251° |
| 2026-05-07 13:48 | 52.18989 | 13.44205 | 10694 ft | 353 kts | 263° |
| 2026-05-07 13:48 | 52.18785 | 13.40126 | 10820 ft | 368 kts | 265° |
| 2026-05-07 13:49 | 52.18574 | 13.35870 | 10932 ft | 383 kts | 265° |
| 2026-05-07 13:49 | 52.18350 | 13.31491 | 11245 ft | 390 kts | 265° |
| 2026-05-07 13:49 | 52.18116 | 13.27067 | 11667 ft | 394 kts | 265° |
| 2026-05-07 13:49 | 52.17877 | 13.22581 | 12133 ft | 397 kts | 265° |
| 2026-05-07 13:50 | 52.17638 | 13.18146 | 12609 ft | 399 kts | 265° |
| 2026-05-07 13:50 | 52.17588 | 13.17218 | 12722 ft | 400 kts | 265° |
| 2026-05-07 13:51 | 52.17578 | 13.17026 | 12744 ft | 400 kts | 265° |
| 2026-05-07 13:51 | 52.17332 | 13.12472 | 13234 ft | 402 kts | 265° |
| 2026-05-07 13:51 | 52.17122 | 13.08588 | 13645 ft | 403 kts | 265° |
| 2026-05-07 13:52 | 52.17036 | 13.06995 | 13814 ft | 404 kts | 265° |
| 2026-05-07 13:52 | 52.16783 | 13.02430 | 14213 ft | 407 kts | 264° |
| 2026-05-07 13:52 | 52.16526 | 12.97866 | 14613 ft | 409 kts | 264° |
| 2026-05-07 13:52 | 52.16083 | 12.93290 | 15018 ft | 410 kts | 257° |
| 2026-05-07 13:53 | 52.15441 | 12.88741 | 15435 ft | 412 kts | 257° |
| 2026-05-07 13:53 | 52.14792 | 12.84165 | 15793 ft | 415 kts | 258° |
| 2026-05-07 13:53 | 52.14141 | 12.79568 | 16164 ft | 418 kts | 258° |
| 2026-05-07 13:53 | 52.13485 | 12.74949 | 16565 ft | 419 kts | 257° |
| 2026-05-07 13:54 | 52.12835 | 12.70389 | 16869 ft | 416 kts | 258° |
| 2026-05-07 13:54 | 52.12180 | 12.65789 | 17012 ft | 419 kts | 257° |
| 2026-05-07 13:54 | 52.11521 | 12.61156 | 17319 ft | 422 kts | 258° |
| 2026-05-07 13:54 | 52.10850 | 12.56465 | 17709 ft | 425 kts | 257° |
| 2026-05-07 13:55 | 52.10185 | 12.51836 | 18092 ft | 426 kts | 257° |
| 2026-05-07 13:55 | 52.09504 | 12.47107 | 18400 ft | 431 kts | 257° |
| 2026-05-07 13:55 | 52.08815 | 12.42342 | 18676 ft | 434 kts | 257° |
| 2026-05-07 13:55 | 52.08111 | 12.37555 | 19025 ft | 435 kts | 256° |
| 2026-05-07 13:56 | 52.07101 | 12.32897 | 19378 ft | 437 kts | 246° |
| 2026-05-07 13:56 | 52.05643 | 12.28565 | 19811 ft | 437 kts | 237° |
| 2026-05-07 13:56 | 52.03851 | 12.24558 | 20176 ft | 439 kts | 233° |
| 2026-05-07 13:56 | 52.02020 | 12.20580 | 20511 ft | 441 kts | 233° |
| 2026-05-07 13:57 | 52.00179 | 12.16577 | 20825 ft | 443 kts | 234° |
| 2026-05-07 13:57 | 51.98333 | 12.12561 | 21136 ft | 445 kts | 234° |
| 2026-05-07 13:57 | 51.96476 | 12.08527 | 21450 ft | 447 kts | 233° |
| 2026-05-07 13:57 | 51.94611 | 12.04485 | 21747 ft | 449 kts | 233° |
| 2026-05-07 13:58 | 51.92761 | 12.00477 | 22034 ft | 450 kts | 233° |
| 2026-05-07 13:58 | 51.90883 | 11.96416 | 22326 ft | 453 kts | 234° |
| 2026-05-07 13:58 | 51.88981 | 11.92308 | 22562 ft | 456 kts | 234° |
| 2026-05-07 13:58 | 51.87062 | 11.88178 | 22831 ft | 458 kts | 233° |
| 2026-05-07 13:59 | 51.85137 | 11.84040 | 23124 ft | 460 kts | 233° |
| 2026-05-07 13:59 | 51.83200 | 11.79892 | 23388 ft | 462 kts | 233° |
| 2026-05-07 13:59 | 51.81274 | 11.75806 | 23664 ft | 464 kts | 233° |
| 2026-05-07 13:59 | 51.79302 | 11.71651 | 23928 ft | 465 kts | 233° |
| 2026-05-07 14:00 | 51.77327 | 11.67505 | 24268 ft | 464 kts | 233° |
| 2026-05-07 14:00 | 51.75352 | 11.63369 | 24538 ft | 465 kts | 232° |
| 2026-05-07 14:00 | 51.73399 | 11.59278 | 24754 ft | 466 kts | 233° |
| 2026-05-07 14:00 | 51.71419 | 11.55135 | 24948 ft | 467 kts | 232° |
| 2026-05-07 14:01 | 51.69467 | 11.51054 | 25102 ft | 469 kts | 232° |
| 2026-05-07 14:01 | 51.67508 | 11.46967 | 25336 ft | 469 kts | 233° |
| 2026-05-07 14:01 | 51.65506 | 11.42796 | 25588 ft | 469 kts | 232° |
| 2026-05-07 14:01 | 51.63504 | 11.38629 | 25878 ft | 469 kts | 232° |
| 2026-05-07 14:02 | 51.61504 | 11.34472 | 26170 ft | 468 kts | 232° |
| 2026-05-07 14:02 | 51.59506 | 11.30327 | 26421 ft | 468 kts | 232° |
| 2026-05-07 14:02 | 51.57508 | 11.26197 | 26711 ft | 467 kts | 232° |
| 2026-05-07 14:02 | 51.55531 | 11.22119 | 26962 ft | 467 kts | 232° |
| 2026-05-07 14:03 | 51.53514 | 11.18001 | 27220 ft | 467 kts | 229° |
| 2026-05-07 14:03 | 51.51222 | 11.14327 | 27522 ft | 465 kts | 219° |
| 2026-05-07 14:03 | 51.48573 | 11.11328 | 27718 ft | 465 kts | 208° |
| 2026-05-07 14:03 | 51.45640 | 11.09142 | 27984 ft | 463 kts | 198° |
| 2026-05-07 14:04 | 51.42544 | 11.07807 | 28330 ft | 460 kts | 189° |
| 2026-05-07 14:04 | 51.39375 | 11.07270 | 28645 ft | 458 kts | 182° |
| 2026-05-07 14:04 | 51.36176 | 11.07013 | 28881 ft | 458 kts | 181° |
| 2026-05-07 14:04 | 51.33022 | 11.06758 | 29142 ft | 458 kts | 181° |
| 2026-05-07 14:05 | 51.29841 | 11.06499 | 29422 ft | 458 kts | 181° |
| 2026-05-07 14:05 | 51.26662 | 11.06242 | 29686 ft | 458 kts | 181° |
| 2026-05-07 14:05 | 51.23463 | 11.05988 | 29900 ft | 459 kts | 181° |
| 2026-05-07 14:05 | 51.20272 | 11.05743 | 30158 ft | 459 kts | 181° |
| 2026-05-07 14:06 | 51.17080 | 11.05503 | 30397 ft | 458 kts | 181° |
| 2026-05-07 14:06 | 51.13895 | 11.05263 | 30645 ft | 458 kts | 181° |
| 2026-05-07 14:06 | 51.10707 | 11.05022 | 30870 ft | 457 kts | 181° |
| 2026-05-07 14:06 | 51.07579 | 11.04781 | 31093 ft | 457 kts | 181° |
| 2026-05-07 14:07 | 51.04406 | 11.04530 | 31306 ft | 456 kts | 182° |
| 2026-05-07 14:07 | 51.01229 | 11.04279 | 31501 ft | 456 kts | 182° |
| 2026-05-07 14:07 | 50.98038 | 11.04030 | 31707 ft | 456 kts | 182° |
| 2026-05-07 14:07 | 50.94872 | 11.03784 | 31921 ft | 456 kts | 182° |
| 2026-05-07 14:08 | 50.91698 | 11.03537 | 32040 ft | 457 kts | 182° |
| 2026-05-07 14:08 | 50.85350 | 11.03045 | 32051 ft | 460 kts | 182° |
| 2026-05-07 14:09 | 50.78953 | 11.02564 | 32042 ft | 460 kts | 182° |
| 2026-05-07 14:09 | 50.72559 | 11.01944 | 32037 ft | 461 kts | 188° |
| 2026-05-07 14:10 | 50.66356 | 10.99400 | 32029 ft | 460 kts | 197° |
| 2026-05-07 14:10 | 50.60245 | 10.96448 | 32025 ft | 461 kts | 197° |
| 2026-05-07 14:11 | 50.54093 | 10.93507 | 32031 ft | 462 kts | 197° |
| 2026-05-07 14:11 | 50.47940 | 10.90564 | 32032 ft | 462 kts | 197° |
| 2026-05-07 14:12 | 50.41792 | 10.87627 | 32040 ft | 462 kts | 197° |
| 2026-05-07 14:12 | 50.35631 | 10.84698 | 32032 ft | 462 kts | 197° |
| 2026-05-07 14:13 | 50.29500 | 10.81789 | 32044 ft | 462 kts | 197° |
| 2026-05-07 14:13 | 50.23333 | 10.78865 | 32040 ft | 461 kts | 197° |
| 2026-05-07 14:14 | 50.17168 | 10.75961 | 32042 ft | 461 kts | 197° |
| 2026-05-07 14:14 | 50.11056 | 10.73082 | 32036 ft | 461 kts | 198° |
| 2026-05-07 14:15 | 50.04883 | 10.70181 | 32040 ft | 462 kts | 197° |
| 2026-05-07 14:15 | 49.98761 | 10.67312 | 32044 ft | 461 kts | 198° |
| 2026-05-07 14:16 | 49.92586 | 10.64422 | 32041 ft | 461 kts | 198° |
| 2026-05-07 14:16 | 49.86452 | 10.61565 | 32048 ft | 461 kts | 197° |
| 2026-05-07 14:17 | 49.80303 | 10.58724 | 32048 ft | 461 kts | 197° |
| 2026-05-07 14:17 | 49.74173 | 10.55883 | 32059 ft | 461 kts | 198° |
| 2026-05-07 14:18 | 49.68079 | 10.52755 | 32055 ft | 460 kts | 200° |
| 2026-05-07 14:18 | 49.62055 | 10.49395 | 32065 ft | 459 kts | 202° |
| 2026-05-07 14:19 | 49.56066 | 10.46074 | 32070 ft | 459 kts | 201° |
| 2026-05-07 14:19 | 49.50024 | 10.42819 | 32066 ft | 459 kts | 201° |
| 2026-05-07 14:20 | 49.43991 | 10.39613 | 32066 ft | 458 kts | 201° |
| 2026-05-07 14:20 | 49.37952 | 10.36399 | 32069 ft | 457 kts | 201° |
| 2026-05-07 14:21 | 49.31973 | 10.33207 | 32068 ft | 457 kts | 201° |
| 2026-05-07 14:21 | 49.26966 | 10.30547 | 32067 ft | 457 kts | 201° |
| 2026-05-07 14:22 | 49.19984 | 10.26857 | 32077 ft | 456 kts | 201° |
| 2026-05-07 14:22 | 49.15264 | 10.23369 | 32072 ft | 451 kts | 216° |
| 2026-05-07 14:23 | 49.10658 | 10.16976 | 32071 ft | 446 kts | 233° |
| 2026-05-07 14:23 | 49.06769 | 10.09571 | 32060 ft | 446 kts | 232° |
| 2026-05-07 14:24 | 49.02862 | 10.02193 | 32066 ft | 446 kts | 232° |
| 2026-05-07 14:24 | 48.98987 | 9.94900 | 32068 ft | 446 kts | 232° |
| 2026-05-07 14:25 | 48.95080 | 9.87572 | 32067 ft | 446 kts | 232° |
| 2026-05-07 14:25 | 48.91170 | 9.80246 | 32065 ft | 445 kts | 232° |
| 2026-05-07 14:26 | 48.87255 | 9.72929 | 32054 ft | 445 kts | 232° |
| 2026-05-07 14:26 | 48.83334 | 9.65633 | 32053 ft | 445 kts | 232° |
| 2026-05-07 14:27 | 48.79442 | 9.58395 | 32052 ft | 444 kts | 232° |
| 2026-05-07 14:27 | 48.75523 | 9.51128 | 32044 ft | 444 kts | 232° |
| 2026-05-07 14:28 | 48.71628 | 9.43922 | 32043 ft | 444 kts | 232° |
| 2026-05-07 14:28 | 48.67713 | 9.36689 | 32040 ft | 443 kts | 232° |
| 2026-05-07 14:29 | 48.63785 | 9.29486 | 32043 ft | 443 kts | 232° |
| 2026-05-07 14:29 | 48.59941 | 9.22242 | 32045 ft | 443 kts | 234° |
| 2026-05-07 14:30 | 48.56370 | 9.14652 | 32043 ft | 442 kts | 237° |
| 2026-05-07 14:30 | 48.52912 | 9.07030 | 32043 ft | 441 kts | 236° |
| 2026-05-07 14:31 | 48.49375 | 8.99442 | 32048 ft | 441 kts | 236° |
| 2026-05-07 14:31 | 48.45781 | 8.91909 | 32048 ft | 441 kts | 235° |
| 2026-05-07 14:32 | 48.42205 | 8.84462 | 32045 ft | 441 kts | 235° |
| 2026-05-07 14:32 | 48.38612 | 8.76961 | 32049 ft | 441 kts | 236° |
| 2026-05-07 14:33 | 48.35047 | 8.69503 | 32048 ft | 441 kts | 236° |
| 2026-05-07 14:33 | 48.31455 | 8.62006 | 32041 ft | 440 kts | 235° |
| 2026-05-07 14:34 | 48.27881 | 8.54583 | 32045 ft | 440 kts | 235° |
| 2026-05-07 14:34 | 48.24271 | 8.47104 | 32050 ft | 441 kts | 235° |
| 2026-05-07 14:35 | 48.20678 | 8.39706 | 32054 ft | 441 kts | 235° |
| 2026-05-07 14:35 | 48.16818 | 8.32542 | 32054 ft | 442 kts | 225° |
| 2026-05-07 14:36 | 48.11850 | 8.27140 | 32046 ft | 445 kts | 214° |
| 2026-05-07 14:36 | 48.06635 | 8.22142 | 32053 ft | 445 kts | 215° |
| 2026-05-07 14:37 | 48.01444 | 8.17143 | 32058 ft | 445 kts | 215° |
| 2026-05-07 14:37 | 47.93618 | 8.09616 | 32040 ft | 445 kts | 215° |
| 2026-05-07 14:38 | 47.88431 | 8.04654 | 32047 ft | 444 kts | 215° |
| 2026-05-07 14:38 | 47.83236 | 7.99697 | 32044 ft | 444 kts | 215° |
| 2026-05-07 14:39 | 47.78012 | 7.94726 | 32047 ft | 444 kts | 214° |
| 2026-05-07 14:39 | 47.72823 | 7.89806 | 32033 ft | 444 kts | 215° |
| 2026-05-07 14:40 | 47.67604 | 7.84855 | 32032 ft | 444 kts | 215° |
| 2026-05-07 14:40 | 47.62428 | 7.79953 | 32034 ft | 444 kts | 215° |
| 2026-05-07 14:41 | 47.57194 | 7.75023 | 32039 ft | 444 kts | 215° |
| 2026-05-07 14:41 | 47.52007 | 7.70148 | 32032 ft | 444 kts | 215° |
| 2026-05-07 14:42 | 47.46799 | 7.65258 | 32043 ft | 444 kts | 215° |
| 2026-05-07 14:42 | 47.41564 | 7.60356 | 32058 ft | 444 kts | 215° |
| 2026-05-07 14:43 | 47.36368 | 7.55502 | 32056 ft | 444 kts | 215° |
| 2026-05-07 14:43 | 47.31146 | 7.50639 | 32046 ft | 443 kts | 215° |
| 2026-05-07 14:44 | 47.25913 | 7.45783 | 32044 ft | 443 kts | 216° |
| 2026-05-07 14:44 | 47.20731 | 7.40979 | 32052 ft | 442 kts | 216° |
| 2026-05-07 14:45 | 47.15842 | 7.35585 | 32052 ft | 436 kts | 229° |
| 2026-05-07 14:45 | 47.12024 | 7.28762 | 32048 ft | 434 kts | 234° |
| 2026-05-07 14:46 | 47.08263 | 7.21833 | 32038 ft | 434 kts | 234° |
| 2026-05-07 14:46 | 47.04492 | 7.14933 | 32053 ft | 432 kts | 234° |
| 2026-05-07 14:47 | 47.00733 | 7.08057 | 32041 ft | 432 kts | 234° |
| 2026-05-07 14:47 | 46.96969 | 7.01181 | 32041 ft | 432 kts | 234° |
| 2026-05-07 14:48 | 46.93208 | 6.94334 | 32040 ft | 431 kts | 233° |
| 2026-05-07 14:48 | 46.89016 | 6.88046 | 32047 ft | 435 kts | 222° |
| 2026-05-07 14:49 | 46.84354 | 6.82488 | 32051 ft | 435 kts | 222° |
| 2026-05-07 14:49 | 46.79653 | 6.76898 | 32050 ft | 435 kts | 222° |
| 2026-05-07 14:50 | 46.74936 | 6.71305 | 32042 ft | 435 kts | 222° |
| 2026-05-07 14:50 | 46.70275 | 6.65782 | 32042 ft | 433 kts | 222° |
| 2026-05-07 14:51 | 46.65601 | 6.60241 | 32039 ft | 432 kts | 222° |
| 2026-05-07 14:51 | 46.60919 | 6.54712 | 32028 ft | 432 kts | 222° |
| 2026-05-07 14:52 | 46.56242 | 6.49220 | 32029 ft | 432 kts | 222° |
| 2026-05-07 14:52 | 46.51593 | 6.43770 | 32024 ft | 432 kts | 222° |
| 2026-05-07 14:53 | 46.46920 | 6.38286 | 32019 ft | 431 kts | 222° |
| 2026-05-07 14:53 | 46.42239 | 6.32820 | 32020 ft | 431 kts | 222° |
| 2026-05-07 14:54 | 46.37555 | 6.27365 | 32004 ft | 431 kts | 222° |
| 2026-05-07 14:54 | 46.32905 | 6.21948 | 32017 ft | 430 kts | 222° |
| 2026-05-07 14:55 | 46.28218 | 6.16569 | 32018 ft | 432 kts | 218° |
| 2026-05-07 14:55 | 46.22748 | 6.12820 | 32021 ft | 441 kts | 199° |
| 2026-05-07 14:56 | 46.16690 | 6.11300 | 32017 ft | 446 kts | 193° |
| 2026-05-07 14:56 | 46.10551 | 6.09943 | 32016 ft | 445 kts | 193° |
| 2026-05-07 14:57 | 46.04431 | 6.08578 | 32014 ft | 445 kts | 193° |
| 2026-05-07 14:57 | 45.98334 | 6.07224 | 32000 ft | 444 kts | 194° |
| 2026-05-07 14:58 | 45.92209 | 6.05865 | 32007 ft | 443 kts | 194° |
| 2026-05-07 14:58 | 45.86127 | 6.04524 | 32016 ft | 443 kts | 193° |
| 2026-05-07 14:59 | 45.80041 | 6.03180 | 31999 ft | 443 kts | 194° |
| 2026-05-07 14:59 | 45.73944 | 6.01829 | 32015 ft | 442 kts | 194° |
| 2026-05-07 15:00 | 45.67874 | 6.00491 | 31983 ft | 442 kts | 193° |
| 2026-05-07 15:00 | 45.61773 | 5.99149 | 31991 ft | 442 kts | 194° |
| 2026-05-07 15:01 | 45.55722 | 5.97811 | 31990 ft | 442 kts | 193° |
| 2026-05-07 15:01 | 45.49632 | 5.96483 | 31997 ft | 441 kts | 193° |
| 2026-05-07 15:02 | 45.43627 | 5.94989 | 32002 ft | 439 kts | 197° |
| 2026-05-07 15:02 | 45.37656 | 5.93072 | 32001 ft | 438 kts | 198° |
| 2026-05-07 15:03 | 45.31745 | 5.91095 | 32005 ft | 438 kts | 198° |
| 2026-05-07 15:03 | 45.25786 | 5.89192 | 32011 ft | 437 kts | 197° |
| 2026-05-07 15:04 | 45.19867 | 5.87377 | 32002 ft | 437 kts | 197° |
| 2026-05-07 15:04 | 45.13923 | 5.85559 | 32004 ft | 436 kts | 197° |
| 2026-05-07 15:05 | 45.08019 | 5.83734 | 31998 ft | 435 kts | 197° |
| 2026-05-07 15:05 | 45.02098 | 5.81902 | 31979 ft | 434 kts | 197° |
| 2026-05-07 15:06 | 44.96184 | 5.80073 | 31995 ft | 434 kts | 197° |
| 2026-05-07 15:06 | 44.90308 | 5.78266 | 31990 ft | 433 kts | 197° |
| 2026-05-07 15:07 | 44.84413 | 5.76461 | 31973 ft | 433 kts | 197° |
| 2026-05-07 15:07 | 44.78535 | 5.74658 | 31987 ft | 432 kts | 197° |
| 2026-05-07 15:08 | 44.72645 | 5.72861 | 31987 ft | 431 kts | 197° |
| 2026-05-07 15:08 | 44.66806 | 5.71086 | 31988 ft | 431 kts | 197° |
| 2026-05-07 15:09 | 44.60939 | 5.69302 | 31985 ft | 431 kts | 196° |
| 2026-05-07 15:09 | 44.55106 | 5.67526 | 31984 ft | 431 kts | 196° |
| 2026-05-07 15:10 | 44.49247 | 5.65751 | 31982 ft | 431 kts | 196° |
| 2026-05-07 15:10 | 44.43405 | 5.63988 | 31977 ft | 430 kts | 196° |
| 2026-05-07 15:11 | 44.38512 | 5.62476 | 31984 ft | 428 kts | 199° |
| 2026-05-07 15:11 | 44.32979 | 5.59613 | 31986 ft | 425 kts | 205° |
| 2026-05-07 15:12 | 44.27469 | 5.56581 | 31976 ft | 424 kts | 205° |
| 2026-05-07 15:12 | 44.21983 | 5.53585 | 31986 ft | 424 kts | 205° |
| 2026-05-07 15:13 | 44.16506 | 5.50598 | 31987 ft | 424 kts | 205° |
| 2026-05-07 15:13 | 44.10945 | 5.47560 | 31969 ft | 433 kts | 205° |
| 2026-05-07 15:14 | 44.05276 | 5.44471 | 31969 ft | 438 kts | 205° |
| 2026-05-07 15:14 | 43.99625 | 5.41406 | 31972 ft | 438 kts | 205° |
| 2026-05-07 15:15 | 43.93926 | 5.38332 | 31967 ft | 438 kts | 205° |
| 2026-05-07 15:15 | 43.88270 | 5.35275 | 31958 ft | 437 kts | 205° |
| 2026-05-07 15:16 | 43.82611 | 5.32221 | 31978 ft | 436 kts | 205° |
| 2026-05-07 15:16 | 43.76938 | 5.29163 | 31984 ft | 437 kts | 205° |
| 2026-05-07 15:17 | 43.71257 | 5.26107 | 31993 ft | 437 kts | 205° |
| 2026-05-07 15:17 | 43.65622 | 5.23081 | 32002 ft | 436 kts | 205° |
| 2026-05-07 15:18 | 43.59960 | 5.20047 | 32004 ft | 435 kts | 205° |
| 2026-05-07 15:18 | 43.54311 | 5.17034 | 32002 ft | 434 kts | 205° |
| 2026-05-07 15:19 | 43.48696 | 5.14049 | 32002 ft | 434 kts | 206° |
| 2026-05-07 15:19 | 43.43060 | 5.11054 | 32004 ft | 432 kts | 206° |
| 2026-05-07 15:20 | 43.37602 | 5.07698 | 32004 ft | 425 kts | 216° |
| 2026-05-07 15:20 | 43.32735 | 5.03102 | 32005 ft | 424 kts | 218° |
| 2026-05-07 15:21 | 43.27936 | 4.98587 | 31975 ft | 413 kts | 218° |
| 2026-05-07 15:21 | 43.25596 | 4.96400 | 31978 ft | 401 kts | 218° |
| 2026-05-07 15:21 | 43.23294 | 4.94249 | 31986 ft | 398 kts | 218° |
| 2026-05-07 15:22 | 43.18729 | 4.89967 | 31977 ft | 397 kts | 218° |
| 2026-05-07 15:22 | 43.14181 | 4.85693 | 31978 ft | 397 kts | 218° |
| 2026-05-07 15:23 | 43.09609 | 4.81426 | 31982 ft | 393 kts | 218° |
| 2026-05-07 15:23 | 43.05060 | 4.77283 | 31982 ft | 394 kts | 214° |
| 2026-05-07 15:24 | 43.00277 | 4.73652 | 31989 ft | 395 kts | 213° |
| 2026-05-07 15:24 | 42.95483 | 4.70007 | 31994 ft | 395 kts | 213° |
| 2026-05-07 15:25 | 42.90674 | 4.66360 | 31986 ft | 394 kts | 213° |
| 2026-05-07 15:25 | 42.85900 | 4.62755 | 31997 ft | 394 kts | 213° |
| 2026-05-07 15:26 | 42.81105 | 4.59142 | 32002 ft | 393 kts | 213° |
| 2026-05-07 15:26 | 42.76317 | 4.55535 | 32014 ft | 393 kts | 213° |
| 2026-05-07 15:27 | 42.71532 | 4.51940 | 32007 ft | 393 kts | 213° |
| 2026-05-07 15:27 | 42.66766 | 4.48368 | 32005 ft | 393 kts | 213° |
| 2026-05-07 15:28 | 42.61966 | 4.44773 | 32005 ft | 393 kts | 213° |
| 2026-05-07 15:28 | 42.57165 | 4.41184 | 32005 ft | 393 kts | 213° |
| 2026-05-07 15:29 | 42.52390 | 4.37618 | 31985 ft | 393 kts | 213° |
| 2026-05-07 15:29 | 42.47606 | 4.34046 | 32000 ft | 392 kts | 213° |
| 2026-05-07 15:30 | 42.42822 | 4.30480 | 32008 ft | 391 kts | 212° |
| 2026-05-07 15:30 | 42.38042 | 4.26937 | 32010 ft | 391 kts | 212° |
| 2026-05-07 15:31 | 42.33264 | 4.23408 | 32008 ft | 390 kts | 212° |
| 2026-05-07 15:31 | 42.28517 | 4.19901 | 31994 ft | 390 kts | 212° |
| 2026-05-07 15:32 | 42.23744 | 4.16382 | 32003 ft | 390 kts | 212° |
| 2026-05-07 15:32 | 42.19010 | 4.12881 | 32007 ft | 389 kts | 212° |
| 2026-05-07 15:33 | 42.14254 | 4.09361 | 32004 ft | 389 kts | 212° |
| 2026-05-07 15:33 | 42.09485 | 4.05862 | 31989 ft | 389 kts | 211° |
| 2026-05-07 15:34 | 42.04749 | 4.02408 | 31988 ft | 389 kts | 211° |
| 2026-05-07 15:34 | 41.99979 | 3.98925 | 31987 ft | 389 kts | 211° |
| 2026-05-07 15:35 | 41.95246 | 3.95462 | 31989 ft | 389 kts | 211° |
| 2026-05-07 15:35 | 41.90591 | 3.91777 | 31974 ft | 388 kts | 215° |
| 2026-05-07 15:36 | 41.86135 | 3.87660 | 31977 ft | 388 kts | 216° |
| 2026-05-07 15:36 | 41.81715 | 3.83490 | 31980 ft | 388 kts | 216° |
| 2026-05-07 15:37 | 41.77313 | 3.79365 | 32001 ft | 388 kts | 216° |
| 2026-05-07 15:37 | 41.72874 | 3.75242 | 31984 ft | 386 kts | 216° |
| 2026-05-07 15:38 | 41.68455 | 3.71150 | 31973 ft | 386 kts | 216° |
| 2026-05-07 15:38 | 41.64024 | 3.67059 | 31972 ft | 387 kts | 215° |
| 2026-05-07 15:39 | 41.59613 | 3.62993 | 31974 ft | 387 kts | 215° |
| 2026-05-07 15:39 | 41.55175 | 3.58908 | 31975 ft | 387 kts | 215° |
| 2026-05-07 15:40 | 41.50730 | 3.54816 | 31959 ft | 387 kts | 215° |
| 2026-05-07 15:40 | 41.46283 | 3.50724 | 31963 ft | 387 kts | 215° |
| 2026-05-07 15:41 | 41.41866 | 3.46674 | 31966 ft | 388 kts | 215° |
| 2026-05-07 15:41 | 41.37410 | 3.42598 | 31966 ft | 388 kts | 214° |
| 2026-05-07 15:42 | 41.32959 | 3.38529 | 31972 ft | 388 kts | 214° |
| 2026-05-07 15:42 | 41.28511 | 3.34466 | 31960 ft | 388 kts | 214° |
| 2026-05-07 15:43 | 41.24066 | 3.30418 | 31962 ft | 388 kts | 214° |
| 2026-05-07 15:43 | 41.19596 | 3.26364 | 31959 ft | 388 kts | 214° |
| 2026-05-07 15:44 | 41.15153 | 3.22328 | 31967 ft | 388 kts | 214° |
| 2026-05-07 15:44 | 41.10683 | 3.18274 | 31959 ft | 388 kts | 214° |
| 2026-05-07 15:45 | 41.06218 | 3.14229 | 31953 ft | 389 kts | 214° |
| 2026-05-07 15:45 | 41.01767 | 3.10201 | 31956 ft | 389 kts | 214° |
| 2026-05-07 15:46 | 40.95038 | 3.04137 | 31986 ft | 389 kts | 214° |
| 2026-05-07 15:47 | 40.90569 | 3.00132 | 31977 ft | 389 kts | 214° |
| 2026-05-07 15:47 | 40.86078 | 2.96095 | 31958 ft | 389 kts | 214° |
| 2026-05-07 15:48 | 40.81615 | 2.92087 | 31964 ft | 390 kts | 214° |
| 2026-05-07 15:48 | 40.77122 | 2.88059 | 31970 ft | 390 kts | 214° |
| 2026-05-07 15:49 | 40.72628 | 2.84044 | 31961 ft | 390 kts | 214° |
| 2026-05-07 15:49 | 40.68147 | 2.80054 | 31969 ft | 390 kts | 214° |
| 2026-05-07 15:50 | 40.63639 | 2.76038 | 31959 ft | 390 kts | 214° |
| 2026-05-07 15:50 | 40.59158 | 2.72056 | 31967 ft | 390 kts | 214° |
| 2026-05-07 15:51 | 40.54653 | 2.68057 | 31959 ft | 390 kts | 214° |
| 2026-05-07 15:51 | 40.50139 | 2.64057 | 31989 ft | 390 kts | 213° |
| 2026-05-07 15:52 | 40.45641 | 2.60078 | 31977 ft | 391 kts | 213° |
| 2026-05-07 15:52 | 40.41148 | 2.56117 | 31963 ft | 391 kts | 213° |
| 2026-05-07 15:53 | 40.36633 | 2.52134 | 31964 ft | 391 kts | 213° |
| 2026-05-07 15:53 | 40.32865 | 2.48817 | 31956 ft | 391 kts | 213° |
| 2026-05-07 15:54 | 40.28355 | 2.44847 | 31963 ft | 391 kts | 213° |
| 2026-05-07 15:54 | 40.23823 | 2.40867 | 31958 ft | 391 kts | 213° |
| 2026-05-07 15:55 | 40.19300 | 2.36903 | 31934 ft | 391 kts | 213° |
| 2026-05-07 15:55 | 40.14801 | 2.32972 | 31954 ft | 391 kts | 213° |
| 2026-05-07 15:56 | 40.10275 | 2.29021 | 31982 ft | 391 kts | 213° |
| 2026-05-07 15:56 | 40.05743 | 2.25067 | 31966 ft | 391 kts | 213° |
| 2026-05-07 15:57 | 40.01226 | 2.21132 | 31959 ft | 392 kts | 213° |
| 2026-05-07 15:57 | 39.96687 | 2.17187 | 31936 ft | 392 kts | 213° |
| 2026-05-07 15:58 | 39.92142 | 2.13251 | 31950 ft | 392 kts | 213° |
| 2026-05-07 15:58 | 39.87623 | 2.09333 | 31944 ft | 393 kts | 213° |
| 2026-05-07 15:59 | 39.83073 | 2.05386 | 31952 ft | 393 kts | 213° |
| 2026-05-07 15:59 | 39.78512 | 2.01445 | 31931 ft | 393 kts | 212° |
| 2026-05-07 16:00 | 39.73945 | 1.97507 | 31927 ft | 393 kts | 213° |
| 2026-05-07 16:00 | 39.69380 | 1.93584 | 31952 ft | 393 kts | 212° |
| 2026-05-07 16:01 | 39.64810 | 1.89658 | 31962 ft | 395 kts | 213° |
| 2026-05-07 16:01 | 39.60245 | 1.85732 | 31949 ft | 396 kts | 213° |
| 2026-05-07 16:02 | 39.55647 | 1.81784 | 31929 ft | 397 kts | 213° |
| 2026-05-07 16:02 | 39.51045 | 1.77819 | 31923 ft | 398 kts | 216° |
| 2026-05-07 16:02 | 39.49047 | 1.75336 | 31919 ft | 401 kts | 230° |
| 2026-05-07 16:03 | 39.47449 | 1.72361 | 31916 ft | 403 kts | 232° |
| 2026-05-07 16:03 | 39.44318 | 1.66345 | 31921 ft | 404 kts | 233° |
| 2026-05-07 16:04 | 39.41194 | 1.60292 | 31925 ft | 404 kts | 233° |
| 2026-05-07 16:04 | 39.38081 | 1.54295 | 31927 ft | 404 kts | 232° |
| 2026-05-07 16:05 | 39.34924 | 1.48258 | 31941 ft | 405 kts | 232° |
| 2026-05-07 16:05 | 39.31754 | 1.42199 | 31900 ft | 408 kts | 232° |
| 2026-05-07 16:06 | 39.28572 | 1.36101 | 31895 ft | 410 kts | 232° |
| 2026-05-07 16:06 | 39.25386 | 1.30015 | 31898 ft | 412 kts | 232° |
| 2026-05-07 16:07 | 39.22159 | 1.23875 | 31902 ft | 412 kts | 232° |
| 2026-05-07 16:07 | 39.18950 | 1.17790 | 31915 ft | 413 kts | 232° |
| 2026-05-07 16:08 | 39.15717 | 1.11650 | 31942 ft | 413 kts | 232° |
| 2026-05-07 16:08 | 39.12483 | 1.05522 | 31949 ft | 413 kts | 232° |
| 2026-05-07 16:09 | 39.09266 | 0.99444 | 31918 ft | 413 kts | 232° |
| 2026-05-07 16:09 | 39.06018 | 0.93309 | 31916 ft | 414 kts | 232° |
| 2026-05-07 16:10 | 39.02825 | 0.87291 | 31920 ft | 415 kts | 232° |
| 2026-05-07 16:10 | 38.99525 | 0.81086 | 31921 ft | 415 kts | 232° |
| 2026-05-07 16:11 | 38.96249 | 0.74956 | 31964 ft | 415 kts | 233° |
| 2026-05-07 16:11 | 38.92970 | 0.68824 | 31941 ft | 417 kts | 233° |
| 2026-05-07 16:12 | 38.89681 | 0.62667 | 31782 ft | 418 kts | 233° |
| 2026-05-07 16:12 | 38.88030 | 0.59583 | 31502 ft | 419 kts | 233° |
| 2026-05-07 16:12 | 38.86394 | 0.56534 | 31229 ft | 420 kts | 233° |
| 2026-05-07 16:12 | 38.84728 | 0.53435 | 30404 ft | 422 kts | 233° |
| 2026-05-07 16:13 | 38.83057 | 0.50335 | 29491 ft | 423 kts | 232° |
| 2026-05-07 16:13 | 38.81535 | 0.47098 | 28545 ft | 427 kts | 240° |
| 2026-05-07 16:13 | 38.80285 | 0.43631 | 27556 ft | 429 kts | 242° |
| 2026-05-07 16:13 | 38.79036 | 0.40134 | 26560 ft | 432 kts | 242° |
| 2026-05-07 16:14 | 38.77774 | 0.36616 | 25508 ft | 435 kts | 243° |
| 2026-05-07 16:14 | 38.76501 | 0.33077 | 24478 ft | 438 kts | 243° |
| 2026-05-07 16:14 | 38.75219 | 0.29528 | 23522 ft | 439 kts | 243° |
| 2026-05-07 16:14 | 38.73934 | 0.25980 | 22636 ft | 435 kts | 243° |
| 2026-05-07 16:15 | 38.72685 | 0.22534 | 21892 ft | 429 kts | 243° |
| 2026-05-07 16:15 | 38.71432 | 0.19084 | 21130 ft | 424 kts | 243° |
| 2026-05-07 16:15 | 38.70194 | 0.15681 | 20381 ft | 419 kts | 244° |
| 2026-05-07 16:15 | 38.68972 | 0.12321 | 19646 ft | 415 kts | 244° |
| 2026-05-07 16:16 | 38.67763 | 0.08992 | 18926 ft | 410 kts | 244° |
| 2026-05-07 16:16 | 38.66562 | 0.05688 | 18217 ft | 407 kts | 244° |
| 2026-05-07 16:16 | 38.65373 | 0.02426 | 17452 ft | 403 kts | 244° |
| 2026-05-07 16:16 | 38.64192 | -0.00808 | 16763 ft | 397 kts | 244° |
| 2026-05-07 16:17 | 38.63029 | -0.03995 | 16070 ft | 393 kts | 244° |
| 2026-05-07 16:17 | 38.61876 | -0.07146 | 15401 ft | 389 kts | 244° |
| 2026-05-07 16:17 | 38.60734 | -0.10260 | 14760 ft | 384 kts | 244° |
| 2026-05-07 16:17 | 38.59607 | -0.13333 | 14138 ft | 380 kts | 244° |
| 2026-05-07 16:18 | 38.58488 | -0.16378 | 13515 ft | 376 kts | 244° |
| 2026-05-07 16:18 | 38.57384 | -0.19389 | 12935 ft | 374 kts | 244° |
| 2026-05-07 16:18 | 38.56278 | -0.22401 | 12352 ft | 372 kts | 244° |
| 2026-05-07 16:18 | 38.55185 | -0.25385 | 11793 ft | 368 kts | 244° |
| 2026-05-07 16:19 | 38.54112 | -0.28296 | 11259 ft | 365 kts | 244° |
| 2026-05-07 16:19 | 38.53051 | -0.31162 | 11068 ft | 348 kts | 244° |
| 2026-05-07 16:19 | 38.52043 | -0.33886 | 10943 ft | 331 kts | 244° |
| 2026-05-07 16:19 | 38.51077 | -0.36501 | 10824 ft | 320 kts | 244° |
| 2026-05-07 16:20 | 38.50140 | -0.39033 | 10690 ft | 310 kts | 244° |
| 2026-05-07 16:20 | 38.49238 | -0.41475 | 10565 ft | 298 kts | 244° |
| 2026-05-07 16:20 | 38.48361 | -0.43842 | 10317 ft | 291 kts | 244° |
| 2026-05-07 16:20 | 38.47504 | -0.46154 | 10084 ft | 288 kts | 244° |
| 2026-05-07 16:21 | 38.46647 | -0.48462 | 9851 ft | 287 kts | 244° |
| 2026-05-07 16:21 | 38.45792 | -0.50766 | 9727 ft | 288 kts | 244° |
| 2026-05-07 16:21 | 38.44932 | -0.53082 | 9596 ft | 288 kts | 244° |
| 2026-05-07 16:21 | 38.44083 | -0.55370 | 9462 ft | 288 kts | 244° |
| 2026-05-07 16:22 | 38.43228 | -0.57677 | 9330 ft | 288 kts | 244° |
| 2026-05-07 16:22 | 38.42366 | -0.59997 | 8834 ft | 292 kts | 244° |
| 2026-05-07 16:22 | 38.41495 | -0.62329 | 8379 ft | 292 kts | 244° |
| 2026-05-07 16:22 | 38.40625 | -0.64655 | 8004 ft | 287 kts | 244° |
| 2026-05-07 16:23 | 38.39771 | -0.66937 | 7263 ft | 284 kts | 244° |
| 2026-05-07 16:23 | 38.38926 | -0.69202 | 6593 ft | 281 kts | 244° |
| 2026-05-07 16:23 | 38.38090 | -0.71440 | 6010 ft | 280 kts | 245° |
| 2026-05-07 16:23 | 38.37251 | -0.73687 | 5507 ft | 281 kts | 245° |
| 2026-05-07 16:24 | 38.36222 | -0.75743 | 4799 ft | 280 kts | 222° |
| 2026-05-07 16:24 | 38.34551 | -0.76912 | 4177 ft | 270 kts | 189° |
| 2026-05-07 16:24 | 38.32780 | -0.76981 | 4008 ft | 242 kts | 165° |
| 2026-05-07 16:24 | 38.31400 | -0.76038 | 4077 ft | 223 kts | 126° |
| 2026-05-07 16:25 | 38.30871 | -0.74295 | 4946 ft | 203 kts | 86° |
| 2026-05-07 16:25 | 38.31154 | -0.72505 | 5512 ft | 217 kts | 80° |
| 2026-05-07 16:25 | 38.31119 | -0.70518 | 5499 ft | 233 kts | 94° |
| 2026-05-07 16:25 | 38.30811 | -0.68439 | 4912 ft | 245 kts | 103° |
| 2026-05-07 16:26 | 38.30231 | -0.66348 | 4245 ft | 253 kts | 112° |
| 2026-05-07 16:26 | 38.29495 | -0.64257 | 2987 ft | 269 kts | 109° |
| 2026-05-07 16:26 | 38.29067 | -0.61935 | 1906 ft | 268 kts | 95° |
| 2026-05-07 16:26 | 38.28907 | -0.60382 | 1329 ft | 273 kts | 97° |
| 2026-05-07 16:27 | 38.28455 | -0.56993 | 888 ft | 303 kts | 100° |
| 2026-05-07 16:27 | 38.28062 | -0.54329 | 830 ft | 306 kts | 99° |
| 2026-05-07 16:27 | 38.27654 | -0.51750 | 1793 ft | 286 kts | 100° |
| 2026-05-07 16:27 | 38.27245 | -0.49360 | 2908 ft | 273 kts | 101° |
| 2026-05-07 16:28 | 38.26816 | -0.46864 | 3008 ft | 295 kts | 100° |
| 2026-05-07 16:28 | 38.26307 | -0.44345 | 3900 ft | 294 kts | 109° |
| 2026-05-07 16:28 | 38.25226 | -0.42058 | 4218 ft | 319 kts | 129° |
| 2026-05-07 16:28 | 38.23309 | -0.40454 | 3997 ft | 351 kts | 160° |
| 2026-05-07 16:29 | 38.20821 | -0.40129 | 4005 ft | 373 kts | 186° |
| 2026-05-07 16:29 | 38.18345 | -0.41248 | 4057 ft | 389 kts | 212° |
| 2026-05-07 16:29 | 38.16281 | -0.43322 | 5164 ft | 368 kts | 222° |
| 2026-05-07 16:29 | 38.14464 | -0.45504 | 6331 ft | 347 kts | 228° |
| 2026-05-07 16:30 | 38.13406 | -0.47917 | 7384 ft | 279 kts | 259° |
| 2026-05-07 16:30 | 38.13559 | -0.50108 | 8508 ft | 234 kts | 297° |
| 2026-05-07 16:30 | 38.14587 | -0.51440 | 9676 ft | 195 kts | 334° |
| 2026-05-07 16:30 | 38.15702 | -0.52070 | 10668 ft | 163 kts | 334° |
| 2026-05-07 16:31 | 38.16776 | -0.52668 | 10928 ft | 175 kts | 335° |
| 2026-05-07 16:31 | 38.17887 | -0.53304 | 10991 ft | 180 kts | 329° |
| 2026-05-07 16:31 | 38.18903 | -0.54304 | 10391 ft | 192 kts | 309° |
| 2026-05-07 16:31 | 38.19576 | -0.55829 | 9628 ft | 206 kts | 291° |
| 2026-05-07 16:32 | 38.20215 | -0.57545 | 8695 ft | 222 kts | 298° |
| 2026-05-07 16:32 | 38.20980 | -0.59327 | 7691 ft | 236 kts | 300° |
| 2026-05-07 16:32 | 38.21799 | -0.61188 | 6785 ft | 245 kts | 300° |
| 2026-05-07 16:32 | 38.22627 | -0.63083 | 6155 ft | 245 kts | 300° |
| 2026-05-07 16:33 | 38.23444 | -0.64970 | 5511 ft | 242 kts | 300° |
| 2026-05-07 16:33 | 38.24247 | -0.66849 | 4895 ft | 240 kts | 300° |
| 2026-05-07 16:33 | 38.25037 | -0.68715 | 4276 ft | 239 kts | 301° |
| 2026-05-07 16:33 | 38.25820 | -0.70577 | 3662 ft | 237 kts | 301° |
| 2026-05-07 16:34 | 38.26595 | -0.72429 | 3036 ft | 237 kts | 300° |
| 2026-05-07 16:34 | 38.27368 | -0.74280 | 2580 ft | 240 kts | 300° |
| 2026-05-07 16:34 | 38.28140 | -0.76137 | 3180 ft | 228 kts | 301° |
| 2026-05-07 16:34 | 38.28859 | -0.77870 | 3928 ft | 218 kts | 300° |
| 2026-05-07 16:35 | 38.29569 | -0.79575 | 4421 ft | 220 kts | 299° |
| 2026-05-07 16:35 | 38.30289 | -0.81302 | 4507 ft | 220 kts | 300° |
| 2026-05-07 16:35 | 38.31006 | -0.83021 | 4517 ft | 219 kts | 299° |
| 2026-05-07 16:35 | 38.31717 | -0.84728 | 4515 ft | 219 kts | 300° |
| 2026-05-07 16:36 | 38.32434 | -0.86453 | 4518 ft | 220 kts | 299° |
| 2026-05-07 16:36 | 38.33316 | -0.88009 | 4508 ft | 216 kts | 327° |
| 2026-05-07 16:36 | 38.34715 | -0.88487 | 4533 ft | 211 kts | 10° |
| 2026-05-07 16:36 | 38.35936 | -0.87621 | 4526 ft | 207 kts | 53° |
| 2026-05-07 16:37 | 38.36323 | -0.85871 | 4521 ft | 218 kts | 96° |
| 2026-05-07 16:37 | 38.35664 | -0.84112 | 4354 ft | 226 kts | 128° |
| 2026-05-07 16:37 | 38.34640 | -0.82592 | 4093 ft | 226 kts | 128° |
| 2026-05-07 16:37 | 38.33534 | -0.81172 | 3834 ft | 228 kts | 145° |
| 2026-05-07 16:38 | 38.32036 | -0.80515 | 3647 ft | 230 kts | 166° |
| 2026-05-07 16:38 | 38.30612 | -0.79679 | 3515 ft | 226 kts | 135° |
| 2026-05-07 16:38 | 38.30056 | -0.78582 | 3456 ft | 223 kts | 108° |
| 2026-05-07 16:38 | 38.30095 | -0.76657 | 3412 ft | 221 kts | 70° |
| 2026-05-07 16:39 | 38.30601 | -0.74827 | 3487 ft | 217 kts | 77° |
| 2026-05-07 16:39 | 38.30593 | -0.72897 | 3664 ft | 221 kts | 97° |
| 2026-05-07 16:39 | 38.30217 | -0.70355 | 3382 ft | 217 kts | 99° |
| 2026-05-07 16:39 | 38.29951 | -0.68489 | 2636 ft | 214 kts | 98° |
| 2026-05-07 16:40 | 38.29785 | -0.67237 | 2149 ft | 210 kts | 98° |
| 2026-05-07 16:40 | 38.29556 | -0.65416 | 1515 ft | 203 kts | 98° |
| 2026-05-07 16:40 | 38.29313 | -0.63717 | 1095 ft | 190 kts | 99° |
| 2026-05-07 16:40 | 38.29070 | -0.62162 | 880 ft | 167 kts | 102° |
| 2026-05-07 16:41 | 38.28880 | -0.60789 | 653 ft | 149 kts | 99° |
| 2026-05-07 16:41 | 38.28720 | -0.59509 | 467 ft | 142 kts | 100° |
| 2026-05-07 16:41 | 38.28563 | -0.58305 | 301 ft | 134 kts | 101° |
| 2026-05-07 16:41 | 38.28404 | -0.57153 | 155 ft | 130 kts | 99° |
| 2026-05-07 16:42 | 38.28257 | -0.56108 | 111 ft | 112 kts | 100° |
| 2026-05-07 16:42 | 38.28175 | -0.55517 | 96 ft | 45 kts | 100° |
| 2026-05-07 16:42 | 38.28125 | -0.55162 | 84 ft | 39 kts | 98° |
| 2026-05-07 16:42 | 38.28156 | -0.54851 | 69 ft | 27 kts | 71° |
| 2026-05-07 16:43 | 38.28186 | -0.54744 | 65 ft | 8 kts | 66° |
| 2026-05-07 16:43 | 38.28234 | -0.54730 | 64 ft | 9 kts | 317° |
| 2026-05-07 16:43 | 38.28253 | -0.54795 | 69 ft | 7 kts | 281° |
| 2026-05-07 16:43 | 38.28260 | -0.54850 | 73 ft | 5 kts | 279° |
| 2026-05-07 16:44 | 38.28267 | -0.54901 | 70 ft | 6 kts | 279° |
| 2026-05-07 16:44 | 38.28276 | -0.54967 | 77 ft | 12 kts | 280° |
| 2026-05-07 16:44 | 38.28291 | -0.55071 | 81 ft | 11 kts | 280° |
| 2026-05-07 16:44 | 38.28304 | -0.55159 | 85 ft | 9 kts | 283° |
| 2026-05-07 16:45 | 38.28347 | -0.55197 | 87 ft | 8 kts | 13° |
| 2026-05-07 16:45 | 38.28398 | -0.55160 | 90 ft | 8 kts | 20° |
| 2026-05-07 16:45 | 38.28439 | -0.55199 | 89 ft | 9 kts | 292° |
| 2026-05-07 16:45 | 38.28453 | -0.55286 | 89 ft | 12 kts | 279° |
| 2026-05-07 16:46 | 38.28465 | -0.55346 | 92 ft | 5 kts | 303° |
| 2026-05-07 16:46 | 38.28501 | -0.55355 | 91 ft | 7 kts | 2° |
| 2026-05-07 16:46 | 38.28536 | -0.55348 | 88 ft | 4 kts | 10° |
| 2026-05-07 16:46 | 38.28540 | -0.55347 | 88 ft | 0 kts | 10° |